Cape Lambert — V7TC9 — position and weather

sailwx.info

Track history (hours):
 
Tides and Currents Weather Stations Pressure Air Temp Water Temp Dewpoint Dewpoint Depression Visibility Wind Speed Wind Dir Waves Ship Positions

Cape Lambert

Last reported at 2015-May-05 06:12 UTC. Time now 2015-May-05 07:13 UTC.
Position N 24°12' E 118°22'.

Length 290 m; draft 16.3 m.

Type: Cargo ship. MMSI: 538003781.

Date/timePositionNaut miles runAvg speedWind from/ knotsBaromVisibWave heightAir tempDewpointWater temp
2015-May-05 06:12N 24°12' E 118°22'0 0.0
2015-May-05 05:30N 24°12' E 118°22'0 0.0
2015-May-05 03:07N 24°12' E 118°22'0 0.0
2015-May-05 02:13N 24°12' E 118°22'0 0.1
2015-May-05 01:13N 24°12' E 118°22'0 0.0
2015-May-04 21:30N 24°12' E 118°22'0 0.0
2015-May-04 11:31N 24°12' E 118°22'0 0.2
2015-May-04 10:31N 24°12' E 118°22'0 0.0
2015-May-04 09:18N 24°12' E 118°22'0 0.1
2015-May-04 08:13N 24°12' E 118°22'0 0.0
2015-May-04 06:31N 24°12' E 118°22'0 0.0
2015-May-04 05:25N 24°12' E 118°22'0 0.0
2015-May-04 04:25N 24°12' E 118°22'0 0.0
2015-May-04 02:19N 24°12' E 118°22'0 0.1
2015-May-04 00:30N 24°12' E 118°22'0 0.1
2015-May-03 23:31N 24°12' E 118°22'0 0.2
2015-May-03 22:30N 24°12' E 118°22'0 0.0
2015-May-03 21:25N 24°12' E 118°22'0 0.0
2015-May-03 20:31N 24°12' E 118°22'0 0.0
2015-May-03 19:19N 24°12' E 118°22'0 0.0
2015-May-03 18:30N 24°12' E 118°22'0 0.0
2015-May-03 17:12N 24°12' E 118°22'0 0.4
2015-May-03 16:31N 24°12' E 118°22'0 0.1
2015-May-03 15:25N 24°12' E 118°22'0 0.1
2015-May-03 14:31N 24°12' E 118°22'0 0.0
2015-May-03 06:24N 24°12' E 118°22'0 0.1
2015-May-03 03:06N 24°12' E 118°22'0 0.0
2015-May-03 00:05N 24°12' E 118°22'0 0.7
2015-May-02 23:32N 24°12' E 118°22'7 6.9
2015-May-02 22:31N 24°09' E 118°29'112 7.0
2015-May-02 06:33N 22°48' E 119°54'9 9.5
2015-May-02 05:33N 22°39' E 119°54'10 9.7
2015-May-02 04:33N 22°29' E 119°54'1010.0
2015-May-02 03:33N 22°19' E 119°54'  
Track history (hours):
 
Tides and Currents Weather Stations Pressure Air Temp Water Temp Dewpoint Dewpoint Depression Visibility Wind Speed Wind Dir Waves Ship Positions

Cape Lambert

Last reported at 2015-May-05 06:12 UTC. Time now 2015-May-05 07:13 UTC.
Position N 24°12' E 118°22'.

Length 290 m; draft 16.3 m.

Type: Cargo ship. MMSI: 538003781.

Date/timePositionNaut miles runAvg speedWind from/ knotsBaromVisibWave heightAir tempDewpointWater temp
2015-May-05 06:12N 24°12' E 118°22'0 0.0
2015-May-05 05:30N 24°12' E 118°22'0 0.0
2015-May-05 03:07N 24°12' E 118°22'0 0.0
2015-May-05 02:13N 24°12' E 118°22'0 0.1
2015-May-05 01:13N 24°12' E 118°22'0 0.0
2015-May-04 21:30N 24°12' E 118°22'0 0.0
2015-May-04 11:31N 24°12' E 118°22'0 0.2
2015-May-04 10:31N 24°12' E 118°22'0 0.0
2015-May-04 09:18N 24°12' E 118°22'0 0.1
2015-May-04 08:13N 24°12' E 118°22'0 0.0
2015-May-04 06:31N 24°12' E 118°22'0 0.0
2015-May-04 05:25N 24°12' E 118°22'0 0.0
2015-May-04 04:25N 24°12' E 118°22'0 0.0
2015-May-04 02:19N 24°12' E 118°22'0 0.1
2015-May-04 00:30N 24°12' E 118°22'0 0.1
2015-May-03 23:31N 24°12' E 118°22'0 0.2
2015-May-03 22:30N 24°12' E 118°22'0 0.0
2015-May-03 21:25N 24°12' E 118°22'0 0.0
2015-May-03 20:31N 24°12' E 118°22'0 0.0
2015-May-03 19:19N 24°12' E 118°22'0 0.0
2015-May-03 18:30N 24°12' E 118°22'0 0.0
2015-May-03 17:12N 24°12' E 118°22'0 0.4
2015-May-03 16:31N 24°12' E 118°22'0 0.1
2015-May-03 15:25N 24°12' E 118°22'0 0.1
2015-May-03 14:31N 24°12' E 118°22'0 0.0
2015-May-03 06:24N 24°12' E 118°22'0 0.1
2015-May-03 03:06N 24°12' E 118°22'0 0.0
2015-May-03 00:05N 24°12' E 118°22'0 0.7
2015-May-02 23:32N 24°12' E 118°22'7 6.9
2015-May-02 22:31N 24°09' E 118°29'112 7.0
2015-May-02 06:33N 22°48' E 119°54'9 9.5
2015-May-02 05:33N 22°39' E 119°54'10 9.7
2015-May-02 04:33N 22°29' E 119°54'1010.0
2015-May-02 03:33N 22°19' E 119°54'  

Dump ship's entire track history